Portada
METAR-TAF:

METAR-TAF

Aeropuertos :

Greenville, Maine, Estados Unidos

latitud: 45-28N, longitud: 069-35W, altitud: 427 m

Observación

El informe se hizo hace 56 minutos, a las 17:56 UTC
Viento 4 kt del sur
Temperatura -8°C
Humedad 52%
Presión 1013 hPa

METAR: KGNR 111756Z AUTO 18004KT M08/M16 A2992 RMK AO1 SLP162 T10831161 11083 21150 56036

Hora: 13:52 (18:52 UTC)


TAF: falta

Observaciones y pronósticos meteorológicos de más de 4000 aeropuertos (mensajes METAR y TAF).

Los puntos amarillos y rojos representan las estaciones disponibles.

Ponga el ratón en el punto deseado para ver el nombre de la estación.

Haga clic para ver las observaciones y los pronósticos meteorológicos.

Para cambiar el mapa : haga clic en los botones verdes con una cruz de color negro para hacer un zoom, en el botón verde con un guión para alejar o en las flechas verdes para mapas adyacentes.


METAR-TAF: